createdAt,value
2018-05-02T00:00:02.686Z,8.40
2018-05-02T00:02:32.482Z,8.40
2018-05-02T00:05:02.280Z,8.30
2018-05-02T00:07:31.328Z,8.30
2018-05-02T00:10:00.278Z,8.30
2018-05-02T00:12:29.216Z,8.30
2018-05-02T00:14:59.132Z,8.30
2018-05-02T00:17:28.298Z,8.30
2018-05-02T00:19:57.302Z,8.40
2018-05-02T00:22:26.246Z,8.40
2018-05-02T00:24:56.167Z,8.30
2018-05-02T00:27:27.059Z,8.30
2018-05-02T00:29:55.852Z,8.30
2018-05-02T00:32:24.639Z,8.20
2018-05-02T00:34:53.427Z,8.20
2018-05-02T00:37:22.285Z,8.20
2018-05-02T00:39:52.828Z,8.20
2018-05-02T00:42:21.639Z,8.20
2018-05-02T00:44:50.435Z,8.20
2018-05-02T00:47:19.218Z,8.30
2018-05-02T00:49:48.009Z,8.30
2018-05-02T00:52:16.885Z,8.30
2018-05-02T00:54:46.492Z,8.40
2018-05-02T00:57:15.266Z,8.40
2018-05-02T00:59:44.890Z,8.40
2018-05-02T01:02:13.683Z,8.40
2018-05-02T01:04:43.272Z,8.40
2018-05-02T01:07:12.117Z,8.40
2018-05-02T01:09:41.712Z,8.40
2018-05-02T01:12:11.335Z,8.40
2018-05-02T01:14:40.943Z,8.40
2018-05-02T01:17:09.838Z,8.40
2018-05-02T01:19:39.457Z,8.40
2018-05-02T01:22:08.994Z,8.40
2018-05-02T01:24:37.808Z,8.40
2018-05-02T01:27:07.396Z,8.30
2018-05-02T01:29:36.189Z,8.40
2018-05-02T01:32:04.994Z,8.40
2018-05-02T01:34:33.768Z,8.40
2018-05-02T01:37:03.371Z,8.40
2018-05-02T01:39:32.285Z,8.40
2018-05-02T01:42:01.824Z,8.40
2018-05-02T01:44:30.662Z,8.30
2018-05-02T01:46:59.465Z,7.70
2018-05-02T01:49:28.269Z,8.30
2018-05-02T01:51:57.077Z,8.30
2018-05-02T01:54:26.642Z,8.30
2018-05-02T01:56:55.456Z,8.20
2018-05-02T01:59:24.274Z,8.30
2018-05-02T02:01:53.094Z,8.30
2018-05-02T02:04:22.670Z,8.30
2018-05-02T02:06:51.484Z,8.30
2018-05-02T02:09:20.298Z,8.30
2018-05-02T02:11:49.126Z,8.20
2018-05-02T02:14:17.917Z,8.20
2018-05-02T02:16:48.232Z,8.20
2018-05-02T02:19:17.804Z,8.30
2018-05-02T02:21:46.628Z,8.30
2018-05-02T02:24:16.196Z,8.30
2018-05-02T02:26:45.122Z,8.30
2018-05-02T02:29:13.990Z,8.40
2018-05-02T02:31:43.599Z,8.50
2018-05-02T02:34:13.154Z,8.50
2018-05-02T02:36:41.968Z,8.50
2018-05-02T02:39:10.780Z,8.60
2018-05-02T02:41:40.409Z,8.60
2018-05-02T02:44:10.118Z,8.60
2018-05-02T02:46:38.927Z,8.60
2018-05-02T02:49:07.815Z,8.60
2018-05-02T02:51:37.416Z,8.60
2018-05-02T02:54:06.182Z,8.60
2018-05-02T02:56:35.138Z,8.60
2018-05-02T02:59:04.407Z,8.60
2018-05-02T03:01:33.220Z,8.60
2018-05-02T03:04:02.069Z,8.60
2018-05-02T03:06:30.988Z,8.60
2018-05-02T03:09:00.556Z,8.60
2018-05-02T03:11:29.474Z,8.60
2018-05-02T03:13:59.085Z,8.50
2018-05-02T03:16:28.224Z,8.50
2018-05-02T03:18:57.020Z,8.50
2018-05-02T03:21:25.852Z,8.50
2018-05-02T03:23:54.671Z,8.50
2018-05-02T03:26:24.245Z,8.40
2018-05-02T03:28:53.065Z,8.40
2018-05-02T03:31:21.845Z,8.50
2018-05-02T03:33:50.679Z,8.40
2018-05-02T03:36:20.339Z,8.50
2018-05-02T03:38:49.837Z,8.50
2018-05-02T03:41:18.651Z,8.50
2018-05-02T03:43:47.479Z,8.50
2018-05-02T03:46:17.692Z,8.50
2018-05-02T03:48:46.515Z,8.50
2018-05-02T03:51:15.305Z,8.50
2018-05-02T03:53:44.109Z,8.50
2018-05-02T03:56:12.950Z,8.50
2018-05-02T03:58:41.797Z,8.50
2018-05-02T04:01:29.097Z,8.50
2018-05-02T04:04:15.777Z,8.50
2018-05-02T04:09:52.741Z,8.50
2018-05-02T04:12:21.538Z,8.50
2018-05-02T04:14:51.163Z,8.50
2018-05-02T04:17:19.945Z,8.50
2018-05-02T04:19:48.809Z,8.60
2018-05-02T04:22:18.357Z,8.60
2018-05-02T04:24:47.959Z,8.50
2018-05-02T04:27:17.559Z,8.50
2018-05-02T04:29:46.415Z,8.50
2018-05-02T04:32:15.259Z,8.60
2018-05-02T04:34:44.153Z,8.60
2018-05-02T04:37:12.970Z,8.60
2018-05-02T04:39:42.579Z,8.70
2018-05-02T04:42:12.160Z,8.70
2018-05-02T04:44:42.487Z,8.70
2018-05-02T04:47:12.111Z,8.80
2018-05-02T04:49:41.653Z,8.70
2018-05-02T04:52:10.469Z,8.70
2018-05-02T04:54:39.280Z,8.70
2018-05-02T04:57:08.840Z,8.70
2018-05-02T04:59:37.716Z,8.70
2018-05-02T05:02:06.475Z,8.70
2018-05-02T05:04:35.253Z,8.70
2018-05-02T05:07:04.074Z,8.70
2018-05-02T05:09:32.888Z,8.60
2018-05-02T05:12:01.689Z,8.60
2018-05-02T05:14:30.472Z,8.60
2018-05-02T05:16:59.309Z,8.60
2018-05-02T05:19:28.138Z,8.60
2018-05-02T05:21:56.945Z,8.70
2018-05-02T05:24:25.844Z,8.60
2018-05-02T05:26:54.676Z,8.60
2018-05-02T05:29:23.500Z,8.60
2018-05-02T05:31:52.282Z,8.60
2018-05-02T05:34:21.134Z,8.60
2018-05-02T05:36:49.952Z,8.70
2018-05-02T05:39:18.741Z,8.80
2018-05-02T05:41:47.525Z,8.80
2018-05-02T05:44:16.328Z,8.80
2018-05-02T05:46:45.132Z,8.80
2018-05-02T05:49:13.937Z,8.90
2018-05-02T05:51:42.723Z,8.90
2018-05-02T05:54:11.551Z,8.90
2018-05-02T05:56:40.430Z,8.80
2018-05-02T05:59:09.243Z,8.70
2018-05-02T06:01:38.817Z,8.80
2018-05-02T06:04:07.723Z,8.80
2018-05-02T06:06:36.528Z,8.90
2018-05-02T06:09:05.418Z,9.00
2018-05-02T06:11:34.213Z,9.10
2018-05-02T06:14:03.781Z,9.20
2018-05-02T06:16:33.037Z,9.20
2018-05-02T06:19:01.851Z,9.20
2018-05-02T06:21:31.553Z,9.20
2018-05-02T06:24:00.393Z,9.20
2018-05-02T06:26:29.204Z,9.30
2018-05-02T06:28:57.996Z,9.30
2018-05-02T06:31:26.806Z,9.40
2018-05-02T06:33:56.363Z,9.40
2018-05-02T06:36:25.961Z,9.50
2018-05-02T06:38:54.765Z,9.50
2018-05-02T06:41:23.579Z,9.60
2018-05-02T06:43:52.384Z,9.60
2018-05-02T06:46:21.577Z,9.70
2018-05-02T06:48:50.493Z,9.80
2018-05-02T06:51:20.046Z,9.80
2018-05-02T06:53:48.925Z,9.80
2018-05-02T06:56:17.708Z,9.90
2018-05-02T06:58:46.518Z,10.00
2018-05-02T07:01:15.303Z,10.10
2018-05-02T07:03:44.107Z,10.20
2018-05-02T07:06:13.590Z,10.30
2018-05-02T07:08:42.382Z,10.40
2018-05-02T07:11:11.170Z,10.40
2018-05-02T07:13:40.075Z,10.60
2018-05-02T07:16:08.884Z,10.70
2018-05-02T07:18:37.696Z,10.80
2018-05-02T07:21:06.471Z,11.00
2018-05-02T07:23:35.264Z,11.10
2018-05-02T07:26:04.090Z,11.20
2018-05-02T07:28:33.674Z,11.40
2018-05-02T07:31:02.622Z,11.40
2018-05-02T07:33:31.429Z,11.40
2018-05-02T07:36:01.006Z,11.40
2018-05-02T07:38:29.827Z,11.30
2018-05-02T07:40:58.678Z,11.30
2018-05-02T07:43:27.488Z,11.40
2018-05-02T07:45:56.388Z,11.40
2018-05-02T07:48:25.208Z,11.40
2018-05-02T07:50:54.113Z,11.40
2018-05-02T07:53:23.684Z,11.50
2018-05-02T07:55:54.009Z,11.50
2018-05-02T07:58:22.794Z,11.50
2018-05-02T08:00:51.595Z,11.50
2018-05-02T08:03:20.418Z,11.60
2018-05-02T08:05:49.978Z,12.00
2018-05-02T08:08:18.892Z,12.00
2018-05-02T08:10:47.698Z,12.20
2018-05-02T08:13:17.298Z,12.30
2018-05-02T08:15:46.142Z,12.20
2018-05-02T08:18:14.946Z,12.30
2018-05-02T08:20:43.787Z,12.50
2018-05-02T08:23:12.598Z,12.50
2018-05-02T08:25:41.410Z,12.50
2018-05-02T08:28:10.236Z,12.60
2018-05-02T08:30:39.835Z,12.70
2018-05-02T08:33:08.651Z,12.70
2018-05-02T08:35:38.216Z,12.80
2018-05-02T08:38:07.837Z,12.90
2018-05-02T08:40:37.402Z,13.00
2018-05-02T08:43:06.325Z,13.00
2018-05-02T08:45:35.898Z,13.20
2018-05-02T08:48:04.730Z,13.20
2018-05-02T08:50:33.569Z,13.20
2018-05-02T08:53:02.387Z,13.10
2018-05-02T08:55:31.255Z,13.20
2018-05-02T08:58:00.108Z,13.20
2018-05-02T09:00:28.979Z,13.30
2018-05-02T09:02:59.326Z,13.70
2018-05-02T09:05:28.145Z,13.70
2018-05-02T09:07:56.936Z,13.80
2018-05-02T09:10:25.781Z,14.00
2018-05-02T09:12:54.677Z,14.20
2018-05-02T09:15:23.491Z,14.30
2018-05-02T09:17:52.281Z,14.40
2018-05-02T09:20:21.119Z,14.50
2018-05-02T09:22:49.957Z,14.60
2018-05-02T09:25:18.795Z,14.80
2018-05-02T09:27:47.620Z,15.00
2018-05-02T09:30:16.499Z,15.10
2018-05-02T09:32:46.403Z,15.20
2018-05-02T09:35:15.973Z,15.30
2018-05-02T09:37:44.827Z,15.30
2018-05-02T09:40:14.389Z,15.40
2018-05-02T09:42:44.059Z,15.60
2018-05-02T09:45:13.605Z,15.60
2018-05-02T09:47:42.418Z,15.60
2018-05-02T09:50:11.235Z,15.60
2018-05-02T09:52:40.811Z,15.60
2018-05-02T09:55:09.635Z,15.60
2018-05-02T09:57:39.208Z,15.50
2018-05-02T10:00:08.021Z,15.50
2018-05-02T10:02:37.602Z,15.30
2018-05-02T10:05:06.409Z,15.30
2018-05-02T10:07:35.245Z,15.20
2018-05-02T10:10:04.845Z,15.30
2018-05-02T10:12:33.678Z,15.30
2018-05-02T10:15:02.450Z,15.50
2018-05-02T10:17:32.029Z,15.80
2018-05-02T10:20:00.844Z,15.80
2018-05-02T10:22:30.438Z,16.10
2018-05-02T10:24:59.242Z,16.10
2018-05-02T10:27:28.832Z,16.20
2018-05-02T10:29:57.714Z,16.20
2018-05-02T10:32:26.633Z,16.20
2018-05-02T10:34:56.180Z,16.20
2018-05-02T10:37:24.982Z,16.20
2018-05-02T10:39:53.796Z,16.20
2018-05-02T10:42:22.608Z,16.30
2018-05-02T10:44:52.189Z,16.70
2018-05-02T10:47:21.788Z,16.90
2018-05-02T10:49:51.388Z,17.10
2018-05-02T10:52:20.208Z,17.00
2018-05-02T10:54:49.001Z,17.20
2018-05-02T10:57:17.824Z,17.40
2018-05-02T10:59:46.648Z,17.40
2018-05-02T11:02:15.512Z,17.50
2018-05-02T11:04:45.132Z,17.90
2018-05-02T11:07:13.954Z,17.90
2018-05-02T11:09:42.763Z,17.90
2018-05-02T11:12:11.606Z,17.80
2018-05-02T11:14:41.187Z,17.90
2018-05-02T11:17:10.010Z,17.80
2018-05-02T11:19:38.836Z,17.90
2018-05-02T11:22:07.665Z,17.90
2018-05-02T11:24:37.262Z,18.20
2018-05-02T11:27:06.038Z,18.20
2018-05-02T11:29:34.962Z,18.30
2018-05-02T11:32:04.556Z,18.50
2018-05-02T11:34:34.106Z,18.50
2018-05-02T11:37:02.928Z,18.50
2018-05-02T11:39:31.725Z,18.50
2018-05-02T11:42:00.722Z,18.60
2018-05-02T11:44:29.556Z,18.70
2018-05-02T11:46:58.353Z,18.90
2018-05-02T11:49:27.942Z,19.00
2018-05-02T11:51:57.554Z,19.00
2018-05-02T11:54:26.334Z,18.90
2018-05-02T11:56:55.113Z,18.90
2018-05-02T11:59:24.672Z,18.90
2018-05-02T12:01:54.243Z,18.70
2018-05-02T12:04:23.038Z,18.70
2018-05-02T12:06:52.638Z,18.50
2018-05-02T12:09:21.433Z,18.50
2018-05-02T12:11:50.238Z,18.50
2018-05-02T12:14:19.054Z,18.50
2018-05-02T12:16:48.332Z,18.60
2018-05-02T12:19:17.917Z,18.90
2018-05-02T12:21:47.505Z,19.00
2018-05-02T12:24:16.445Z,19.00
2018-05-02T12:26:46.383Z,19.50
2018-05-02T12:29:15.197Z,19.40
2018-05-02T12:31:44.919Z,19.80
2018-05-02T12:34:14.517Z,19.90
2018-05-02T12:36:44.181Z,19.90
2018-05-02T12:39:12.959Z,19.90
2018-05-02T12:41:41.765Z,19.90
2018-05-02T12:44:10.599Z,19.90
2018-05-02T12:46:39.485Z,19.90
2018-05-02T12:49:08.257Z,19.80
2018-05-02T12:51:37.045Z,19.70
2018-05-02T12:54:05.903Z,19.60
2018-05-02T12:56:35.097Z,19.50
2018-05-02T12:59:04.651Z,19.40
2018-05-02T13:01:34.288Z,19.40
2018-05-02T13:04:03.055Z,19.40
2018-05-02T13:06:31.863Z,19.50
2018-05-02T13:09:00.664Z,19.60
2018-05-02T13:11:29.476Z,19.70
2018-05-02T13:13:58.327Z,19.70
2018-05-02T13:16:27.133Z,19.70
2018-05-02T13:18:55.923Z,19.60
2018-05-02T13:21:24.746Z,19.50
2018-05-02T13:23:53.553Z,19.60
2018-05-02T13:26:22.375Z,19.80
2018-05-02T13:28:51.157Z,19.90
2018-05-02T13:31:19.965Z,19.90
2018-05-02T13:33:48.763Z,19.90
2018-05-02T13:36:17.885Z,19.80
2018-05-02T13:38:47.485Z,19.70
2018-05-02T13:41:16.306Z,19.70
2018-05-02T13:43:45.142Z,19.90
2018-05-02T13:46:14.927Z,20.10
2018-05-02T13:48:43.720Z,20.10
2018-05-02T13:51:12.640Z,20.10
2018-05-02T13:53:42.241Z,20.20
2018-05-02T13:56:11.005Z,20.20
2018-05-02T13:58:39.842Z,20.40
2018-05-02T14:01:08.627Z,20.50
2018-05-02T14:03:37.460Z,20.50
2018-05-02T14:06:06.350Z,20.50
2018-05-02T14:08:35.244Z,20.50
2018-05-02T14:11:04.815Z,20.50
2018-05-02T14:13:34.376Z,20.50
2018-05-02T14:16:03.217Z,20.40
2018-05-02T14:18:31.970Z,20.50
2018-05-02T14:21:00.800Z,20.60
2018-05-02T14:23:29.604Z,20.60
2018-05-02T14:25:58.398Z,20.80
2018-05-02T14:28:27.222Z,20.90
2018-05-02T14:30:56.802Z,21.30
2018-05-02T14:33:25.626Z,21.30
2018-05-02T14:35:55.190Z,21.10
2018-05-02T14:38:24.062Z,21.00
2018-05-02T14:40:53.580Z,21.20
2018-05-02T14:43:22.396Z,21.10
2018-05-02T14:45:51.209Z,21.20
2018-05-02T14:48:20.029Z,21.30
2018-05-02T14:50:49.592Z,21.40
2018-05-02T14:53:18.393Z,21.40
2018-05-02T14:55:47.206Z,21.40
2018-05-02T14:58:16.018Z,21.30
2018-05-02T15:00:44.815Z,21.30
2018-05-02T15:03:13.602Z,21.30
2018-05-02T15:05:42.449Z,21.50
2018-05-02T15:08:11.322Z,22.40
2018-05-02T15:10:40.102Z,23.50
2018-05-02T15:13:09.690Z,25.00
2018-05-02T15:15:38.615Z,25.00
2018-05-02T15:18:07.445Z,24.80
2018-05-02T15:20:36.283Z,25.30
2018-05-02T15:23:05.101Z,26.00
2018-05-02T15:25:33.916Z,25.80
2018-05-02T15:28:03.882Z,25.60
2018-05-02T15:30:32.725Z,25.60
2018-05-02T15:33:02.299Z,24.80
2018-05-02T15:35:31.274Z,24.80
2018-05-02T15:38:00.108Z,24.60
2018-05-02T15:40:29.693Z,25.90
2018-05-02T15:42:58.526Z,25.90
2018-05-02T15:45:28.105Z,28.00
2018-05-02T15:47:56.921Z,28.10
2018-05-02T15:50:26.494Z,29.90
2018-05-02T15:52:55.312Z,29.80
2018-05-02T15:55:24.892Z,28.30
2018-05-02T15:57:54.594Z,27.20
2018-05-02T16:00:23.339Z,27.20
2018-05-02T16:02:52.138Z,26.30
2018-05-02T16:05:20.949Z,25.40
2018-05-02T16:07:50.538Z,23.90
2018-05-02T16:10:20.100Z,23.20
2018-05-02T16:12:49.704Z,22.70
2018-05-02T16:15:18.517Z,22.60
2018-05-02T16:17:47.422Z,22.20
2018-05-02T16:20:16.228Z,21.90
2018-05-02T16:22:45.817Z,21.30
2018-05-02T16:25:15.445Z,21.10
2018-05-02T16:27:44.348Z,21.10
2018-05-02T16:30:13.050Z,20.90
2018-05-02T16:32:41.882Z,20.80
2018-05-02T16:35:11.484Z,20.60
2018-05-02T16:37:40.309Z,20.60
2018-05-02T16:40:09.101Z,20.50
2018-05-02T16:42:37.937Z,20.40
2018-05-02T16:45:06.852Z,20.10
2018-05-02T16:47:35.632Z,20.00
2018-05-02T16:50:04.453Z,19.80
2018-05-02T16:52:33.276Z,19.70
2018-05-02T16:55:02.070Z,19.60
2018-05-02T16:57:30.880Z,19.50
2018-05-02T16:59:59.701Z,19.40
2018-05-02T17:02:28.492Z,19.20
2018-05-02T17:04:57.925Z,19.20
2018-05-02T17:07:26.703Z,19.10
2018-05-02T17:09:55.531Z,19.00
2018-05-02T17:12:24.360Z,18.90
2018-05-02T17:14:53.919Z,18.80
2018-05-02T17:17:23.573Z,18.80
2018-05-02T17:19:53.164Z,18.70
2018-05-02T17:22:22.074Z,18.70
2018-05-02T17:24:50.832Z,18.70
2018-05-02T17:27:20.434Z,18.60
2018-05-02T17:29:50.065Z,18.60
2018-05-02T17:32:19.655Z,18.40
2018-05-02T17:34:50.288Z,18.40
2018-05-02T17:37:19.845Z,18.30
2018-05-02T17:39:48.645Z,18.30
2018-05-02T17:42:17.514Z,18.20
2018-05-02T17:44:46.366Z,18.10
2018-05-02T17:47:15.192Z,18.00
2018-05-02T17:49:44.811Z,17.80
2018-05-02T17:52:14.397Z,17.70
2018-05-02T17:54:43.189Z,17.70
2018-05-02T17:57:12.867Z,17.60
2018-05-02T17:59:41.683Z,17.50
2018-05-02T18:02:11.264Z,17.40
2018-05-02T18:04:40.071Z,17.40
2018-05-02T18:07:08.953Z,17.30
2018-05-02T18:09:37.771Z,17.30
2018-05-02T18:12:07.377Z,17.20
2018-05-02T18:14:36.957Z,17.20
2018-05-02T18:17:05.793Z,17.10
2018-05-02T18:19:34.620Z,17.10
2018-05-02T18:22:04.179Z,17.10
2018-05-02T18:24:32.981Z,17.10
2018-05-02T18:27:01.856Z,17.00
2018-05-02T18:29:31.443Z,17.00
2018-05-02T18:32:00.258Z,17.00
2018-05-02T18:34:29.082Z,17.00
2018-05-02T18:36:57.882Z,17.00
2018-05-02T18:39:27.467Z,17.00
2018-05-02T18:41:56.345Z,16.90
2018-05-02T18:44:25.157Z,16.90
2018-05-02T18:46:54.737Z,16.90
2018-05-02T18:49:24.332Z,16.80
2018-05-02T18:51:53.146Z,16.70
2018-05-02T18:54:22.782Z,16.70
2018-05-02T18:56:51.636Z,16.70
2018-05-02T18:59:20.460Z,16.70
2018-05-02T19:01:49.296Z,16.70
2018-05-02T19:04:18.098Z,16.70
2018-05-02T19:06:47.551Z,16.60
2018-05-02T19:09:16.388Z,16.60
2018-05-02T19:11:45.446Z,16.60
2018-05-02T19:14:14.267Z,16.60
2018-05-02T19:16:43.076Z,16.60
2018-05-02T19:19:18.346Z,16.50
2018-05-02T19:21:47.821Z,16.50
2018-05-02T19:24:17.421Z,16.50
2018-05-02T19:26:48.419Z,16.50
2018-05-02T19:29:18.001Z,16.40
2018-05-02T19:31:52.429Z,16.40
2018-05-02T19:34:21.287Z,16.40
2018-05-02T19:36:51.653Z,16.30
2018-05-02T19:39:20.472Z,16.30
2018-05-02T19:41:54.838Z,16.40
2018-05-02T19:44:24.497Z,16.30
2018-05-02T19:46:53.260Z,16.20
2018-05-02T19:49:22.836Z,16.20
2018-05-02T19:51:57.180Z,16.10
2018-05-02T19:54:25.973Z,16.10
2018-05-02T19:56:55.197Z,16.10
2018-05-02T19:59:24.006Z,16.10
2018-05-02T20:01:58.443Z,16.00
2018-05-02T20:04:28.026Z,15.90
2018-05-02T20:06:56.863Z,15.90
2018-05-02T20:09:31.977Z,15.90
2018-05-02T20:12:06.408Z,15.90
2018-05-02T20:14:36.004Z,15.80
2018-05-02T20:17:04.788Z,15.80
2018-05-02T20:19:33.600Z,15.80
2018-05-02T20:22:02.410Z,15.80
2018-05-02T20:24:31.984Z,15.70
2018-05-02T20:27:00.800Z,15.70
2018-05-02T20:29:29.606Z,15.70
2018-05-02T20:31:58.417Z,15.60
2018-05-02T20:34:27.235Z,15.70
2018-05-02T20:36:56.835Z,15.60
2018-05-02T20:39:25.633Z,15.60
2018-05-02T20:41:54.527Z,15.60
2018-05-02T20:44:23.315Z,15.50
2018-05-02T20:46:52.127Z,15.50
2018-05-02T20:49:21.022Z,15.40
2018-05-02T20:51:50.595Z,15.40
2018-05-02T20:54:20.200Z,15.40
2018-05-02T20:56:49.054Z,15.30
2018-05-02T20:59:18.592Z,15.30
2018-05-02T21:01:48.351Z,15.30
2018-05-02T21:04:17.947Z,15.20
2018-05-02T21:06:46.799Z,15.20
2018-05-02T21:09:16.398Z,15.10
2018-05-02T21:11:46.113Z,15.00
2018-05-02T21:14:15.665Z,15.00
2018-05-02T21:16:44.465Z,15.00
2018-05-02T21:19:13.277Z,15.00
2018-05-02T21:21:42.894Z,14.90
2018-05-02T21:24:12.459Z,14.80
2018-05-02T21:26:41.269Z,14.80
2018-05-02T21:29:10.866Z,14.80
2018-05-02T21:31:39.657Z,14.80
2018-05-02T21:34:08.558Z,14.80
2018-05-02T21:36:37.366Z,14.80
2018-05-02T21:39:06.150Z,14.80
2018-05-02T21:41:34.995Z,14.70
2018-05-02T21:44:04.599Z,14.70
2018-05-02T21:46:33.414Z,14.70
2018-05-02T21:49:02.286Z,14.70
2018-05-02T21:51:31.065Z,14.70
2018-05-02T21:53:59.883Z,14.70
2018-05-02T21:56:29.471Z,14.70
2018-05-02T21:58:58.291Z,14.70
2018-05-02T22:01:27.860Z,14.70
2018-05-02T22:03:57.089Z,14.70
2018-05-02T22:06:25.964Z,14.70
2018-05-02T22:08:55.555Z,14.80
2018-05-02T22:11:24.470Z,14.70
2018-05-02T22:13:54.027Z,14.70
2018-05-02T22:16:22.839Z,14.70
2018-05-02T22:18:51.654Z,14.70
2018-05-02T22:21:20.449Z,14.70
2018-05-02T22:23:49.281Z,14.70
2018-05-02T22:26:18.134Z,14.60
2018-05-02T22:28:47.683Z,14.60
2018-05-02T22:31:16.607Z,14.60
2018-05-02T22:33:46.198Z,14.50
2018-05-02T22:36:15.204Z,14.50
2018-05-02T22:38:44.001Z,14.50
2018-05-02T22:41:12.833Z,14.50
2018-05-02T22:43:41.749Z,14.40
2018-05-02T22:46:11.034Z,14.40
2018-05-02T22:48:39.932Z,14.40
2018-05-02T22:51:09.463Z,14.30
2018-05-02T22:53:38.293Z,14.30
2018-05-02T22:56:07.125Z,14.20
2018-05-02T22:58:35.951Z,14.20
2018-05-02T23:01:04.739Z,14.20
2018-05-02T23:03:33.561Z,14.20
2018-05-02T23:06:03.145Z,14.20
2018-05-02T23:08:32.011Z,14.20
2018-05-02T23:11:01.600Z,14.20
2018-05-02T23:13:30.405Z,14.20
2018-05-02T23:16:00.008Z,14.20
2018-05-02T23:18:28.796Z,14.10
2018-05-02T23:20:57.639Z,14.20
2018-05-02T23:23:26.569Z,14.10
2018-05-02T23:25:55.363Z,14.10
2018-05-02T23:28:24.167Z,14.10
2018-05-02T23:30:52.995Z,14.00
2018-05-02T23:33:21.789Z,14.10
2018-05-02T23:35:50.596Z,14.00
2018-05-02T23:38:19.423Z,14.00
2018-05-02T23:40:48.981Z,14.00
2018-05-02T23:43:17.828Z,14.00
2018-05-02T23:45:47.392Z,14.00
2018-05-02T23:48:16.220Z,14.00
2018-05-02T23:50:45.041Z,13.90
2018-05-02T23:53:13.847Z,13.90
2018-05-02T23:55:43.414Z,13.90
2018-05-02T23:58:12.327Z,13.90
